sensor_id;sensor_type;location;lat;lon;timestamp;P1;durP1;ratioP1;P2;durP2;ratioP2
69280;SDS011;56392;51.082;17.080;2024-01-25T00:02:57;9.35;;;1.33;;
69280;SDS011;56392;51.082;17.080;2024-01-25T00:08:22;10.07;;;1.23;;
69280;SDS011;56392;51.082;17.080;2024-01-25T00:13:45;9.47;;;1.07;;
69280;SDS011;56392;51.082;17.080;2024-01-25T00:19:12;9.88;;;1.27;;
69280;SDS011;56392;51.082;17.080;2024-01-25T00:24:36;9.63;;;1.50;;
69280;SDS011;56392;51.082;17.080;2024-01-25T00:30:01;12.57;;;1.60;;
69280;SDS011;56392;51.082;17.080;2024-01-25T00:35:26;6.78;;;1.20;;
69280;SDS011;56392;51.082;17.080;2024-01-25T00:40:52;11.73;;;1.30;;
69280;SDS011;56392;51.082;17.080;2024-01-25T00:46:16;10.73;;;1.53;;
69280;SDS011;56392;51.082;17.080;2024-01-25T00:51:40;12.95;;;1.45;;
69280;SDS011;56392;51.082;17.080;2024-01-25T00:57:13;11.55;;;1.45;;
69280;SDS011;56392;51.082;17.080;2024-01-25T01:02:39;10.23;;;1.40;;
69280;SDS011;56392;51.082;17.080;2024-01-25T01:08:05;12.73;;;1.30;;
69280;SDS011;56392;51.082;17.080;2024-01-25T01:13:30;9.85;;;1.20;;
69280;SDS011;56392;51.082;17.080;2024-01-25T01:18:53;11.15;;;1.55;;
69280;SDS011;56392;51.082;17.080;2024-01-25T01:24:17;10.90;;;1.50;;
69280;SDS011;56392;51.082;17.080;2024-01-25T01:29:41;9.88;;;0.95;;
69280;SDS011;56392;51.082;17.080;2024-01-25T01:35:04;13.20;;;1.42;;
69280;SDS011;56392;51.082;17.080;2024-01-25T01:40:28;9.27;;;1.33;;
69280;SDS011;56392;51.082;17.080;2024-01-25T01:45:53;10.70;;;1.10;;
69280;SDS011;56392;51.082;17.080;2024-01-25T01:51:21;10.00;;;1.10;;
69280;SDS011;56392;51.082;17.080;2024-01-25T01:56:45;12.87;;;1.50;;
69280;SDS011;56392;51.082;17.080;2024-01-25T02:02:10;12.03;;;1.80;;
69280;SDS011;56392;51.082;17.080;2024-01-25T02:07:33;15.30;;;1.88;;
69280;SDS011;56392;51.082;17.080;2024-01-25T02:12:56;13.23;;;1.67;;
69280;SDS011;56392;51.082;17.080;2024-01-25T02:18:21;12.73;;;1.80;;
69280;SDS011;56392;51.082;17.080;2024-01-25T02:23:46;13.48;;;1.60;;
69280;SDS011;56392;51.082;17.080;2024-01-25T02:29:10;11.27;;;1.17;;
69280;SDS011;56392;51.082;17.080;2024-01-25T02:34:41;11.97;;;1.40;;
69280;SDS011;56392;51.082;17.080;2024-01-25T02:40:06;14.68;;;1.60;;
69280;SDS011;56392;51.082;17.080;2024-01-25T02:45:30;10.68;;;1.70;;
69280;SDS011;56392;51.082;17.080;2024-01-25T02:50:53;15.93;;;1.83;;
69280;SDS011;56392;51.082;17.080;2024-01-25T02:56:18;14.20;;;1.50;;
69280;SDS011;56392;51.082;17.080;2024-01-25T03:01:42;10.82;;;0.98;;
69280;SDS011;56392;51.082;17.080;2024-01-25T03:07:05;9.23;;;1.20;;
69280;SDS011;56392;51.082;17.080;2024-01-25T03:12:30;12.83;;;1.40;;
69280;SDS011;56392;51.082;17.080;2024-01-25T03:17:53;13.45;;;1.45;;
69280;SDS011;56392;51.082;17.080;2024-01-25T03:23:16;10.40;;;1.40;;
69280;SDS011;56392;51.082;17.080;2024-01-25T03:28:41;15.33;;;1.57;;
69280;SDS011;56392;51.082;17.080;2024-01-25T03:34:04;11.75;;;1.10;;
69280;SDS011;56392;51.082;17.080;2024-01-25T03:39:28;8.68;;;1.30;;
69280;SDS011;56392;51.082;17.080;2024-01-25T03:44:53;8.67;;;1.07;;
69280;SDS011;56392;51.082;17.080;2024-01-25T03:50:16;9.83;;;1.10;;
69280;SDS011;56392;51.082;17.080;2024-01-25T03:55:39;14.32;;;1.60;;
69280;SDS011;56392;51.082;17.080;2024-01-25T04:01:04;10.80;;;1.10;;
69280;SDS011;56392;51.082;17.080;2024-01-25T04:06:28;10.93;;;1.23;;
69280;SDS011;56392;51.082;17.080;2024-01-25T04:11:52;11.60;;;1.45;;
69280;SDS011;56392;51.082;17.080;2024-01-25T04:17:18;13.48;;;1.55;;
69280;SDS011;56392;51.082;17.080;2024-01-25T04:22:41;15.90;;;2.83;;
69280;SDS011;56392;51.082;17.080;2024-01-25T04:28:05;12.95;;;1.63;;
69280;SDS011;56392;51.082;17.080;2024-01-25T04:33:29;12.15;;;1.58;;
69280;SDS011;56392;51.082;17.080;2024-01-25T04:38:53;10.33;;;1.50;;
69280;SDS011;56392;51.082;17.080;2024-01-25T04:44:16;9.97;;;1.20;;
69280;SDS011;56392;51.082;17.080;2024-01-25T04:49:41;11.13;;;1.30;;
69280;SDS011;56392;51.082;17.080;2024-01-25T04:55:05;9.50;;;1.40;;
69280;SDS011;56392;51.082;17.080;2024-01-25T05:00:30;12.93;;;1.73;;
69280;SDS011;56392;51.082;17.080;2024-01-25T05:05:57;11.02;;;1.40;;
69280;SDS011;56392;51.082;17.080;2024-01-25T05:11:21;10.00;;;1.40;;
69280;SDS011;56392;51.082;17.080;2024-01-25T05:16:44;10.53;;;1.60;;
69280;SDS011;56392;51.082;17.080;2024-01-25T05:22:09;12.02;;;1.88;;
69280;SDS011;56392;51.082;17.080;2024-01-25T05:27:32;12.55;;;1.60;;
69280;SDS011;56392;51.082;17.080;2024-01-25T05:32:56;10.00;;;1.77;;
69280;SDS011;56392;51.082;17.080;2024-01-25T05:38:21;10.87;;;1.60;;
69280;SDS011;56392;51.082;17.080;2024-01-25T05:43:45;13.65;;;1.58;;
69280;SDS011;56392;51.082;17.080;2024-01-25T05:49:08;12.88;;;1.75;;
69280;SDS011;56392;51.082;17.080;2024-01-25T05:54:33;7.50;;;1.23;;
69280;SDS011;56392;51.082;17.080;2024-01-25T05:59:56;6.22;;;0.98;;
69280;SDS011;56392;51.082;17.080;2024-01-25T06:05:20;12.48;;;1.40;;
69280;SDS011;56392;51.082;17.080;2024-01-25T06:10:44;9.07;;;1.60;;
69280;SDS011;56392;51.082;17.080;2024-01-25T06:16:08;10.82;;;1.48;;
69280;SDS011;56392;51.082;17.080;2024-01-25T06:21:31;9.05;;;1.60;;
69280;SDS011;56392;51.082;17.080;2024-01-25T06:26:58;14.00;;;1.40;;
69280;SDS011;56392;51.082;17.080;2024-01-25T06:32:21;11.80;;;1.60;;
69280;SDS011;56392;51.082;17.080;2024-01-25T06:37:45;11.35;;;1.50;;
69280;SDS011;56392;51.082;17.080;2024-01-25T06:43:10;19.88;;;2.20;;
69280;SDS011;56392;51.082;17.080;2024-01-25T06:48:34;16.07;;;2.20;;
69280;SDS011;56392;51.082;17.080;2024-01-25T06:53:57;13.90;;;1.98;;
69280;SDS011;56392;51.082;17.080;2024-01-25T06:59:21;11.40;;;1.77;;
69280;SDS011;56392;51.082;17.080;2024-01-25T07:04:45;12.43;;;1.63;;
69280;SDS011;56392;51.082;17.080;2024-01-25T07:10:08;15.38;;;2.13;;
69280;SDS011;56392;51.082;17.080;2024-01-25T07:15:33;11.27;;;1.85;;
69280;SDS011;56392;51.082;17.080;2024-01-25T07:20:58;11.23;;;1.70;;
69280;SDS011;56392;51.082;17.080;2024-01-25T07:26:21;13.03;;;1.70;;
69280;SDS011;56392;51.082;17.080;2024-01-25T07:31:47;15.13;;;1.88;;
69280;SDS011;56392;51.082;17.080;2024-01-25T07:37:10;15.65;;;2.15;;
69280;SDS011;56392;51.082;17.080;2024-01-25T07:42:34;9.47;;;1.37;;
69280;SDS011;56392;51.082;17.080;2024-01-25T07:47:59;9.80;;;1.50;;
69280;SDS011;56392;51.082;17.080;2024-01-25T07:53:22;12.98;;;1.92;;
69280;SDS011;56392;51.082;17.080;2024-01-25T07:58:45;10.57;;;1.40;;
69280;SDS011;56392;51.082;17.080;2024-01-25T08:04:12;12.85;;;1.60;;
69280;SDS011;56392;51.082;17.080;2024-01-25T08:09:35;11.10;;;1.40;;
69280;SDS011;56392;51.082;17.080;2024-01-25T08:14:58;13.60;;;1.67;;
69280;SDS011;56392;51.082;17.080;2024-01-25T08:20:23;15.40;;;2.23;;
69280;SDS011;56392;51.082;17.080;2024-01-25T08:25:46;11.23;;;1.55;;
69280;SDS011;56392;51.082;17.080;2024-01-25T08:31:09;17.85;;;1.73;;
69280;SDS011;56392;51.082;17.080;2024-01-25T08:36:34;10.77;;;1.50;;
69280;SDS011;56392;51.082;17.080;2024-01-25T08:41:59;15.50;;;1.40;;
69280;SDS011;56392;51.082;17.080;2024-01-25T08:47:25;12.20;;;1.55;;
69280;SDS011;56392;51.082;17.080;2024-01-25T08:52:51;9.13;;;1.43;;
69280;SDS011;56392;51.082;17.080;2024-01-25T08:58:22;11.55;;;1.50;;
69280;SDS011;56392;51.082;17.080;2024-01-25T09:03:46;11.93;;;1.33;;
69280;SDS011;56392;51.082;17.080;2024-01-25T09:09:13;11.13;;;1.43;;
69280;SDS011;56392;51.082;17.080;2024-01-25T09:14:36;10.47;;;1.70;;
69280;SDS011;56392;51.082;17.080;2024-01-25T09:20:00;9.52;;;1.40;;
69280;SDS011;56392;51.082;17.080;2024-01-25T09:25:28;12.93;;;1.60;;
69280;SDS011;56392;51.082;17.080;2024-01-25T09:30:55;10.23;;;1.83;;
69280;SDS011;56392;51.082;17.080;2024-01-25T09:36:21;12.68;;;1.83;;
69280;SDS011;56392;51.082;17.080;2024-01-25T09:41:47;13.63;;;1.60;;
69280;SDS011;56392;51.082;17.080;2024-01-25T09:47:10;12.07;;;1.97;;
69280;SDS011;56392;51.082;17.080;2024-01-25T09:52:35;10.70;;;1.33;;
69280;SDS011;56392;51.082;17.080;2024-01-25T09:58:02;14.52;;;1.65;;
69280;SDS011;56392;51.082;17.080;2024-01-25T10:03:29;12.20;;;2.10;;
69280;SDS011;56392;51.082;17.080;2024-01-25T10:08:52;13.07;;;2.17;;
69280;SDS011;56392;51.082;17.080;2024-01-25T10:14:19;11.07;;;1.40;;
69280;SDS011;56392;51.082;17.080;2024-01-25T10:19:43;15.18;;;2.10;;
69280;SDS011;56392;51.082;17.080;2024-01-25T10:25:09;12.03;;;1.40;;
69280;SDS011;56392;51.082;17.080;2024-01-25T10:30:42;8.15;;;1.38;;
69280;SDS011;56392;51.082;17.080;2024-01-25T10:36:06;11.00;;;1.30;;
69280;SDS011;56392;51.082;17.080;2024-01-25T10:41:31;14.37;;;1.40;;
69280;SDS011;56392;51.082;17.080;2024-01-25T10:46:57;11.95;;;1.45;;
69280;SDS011;56392;51.082;17.080;2024-01-25T10:52:21;12.05;;;1.42;;
69280;SDS011;56392;51.082;17.080;2024-01-25T10:57:45;9.30;;;1.33;;
69280;SDS011;56392;51.082;17.080;2024-01-25T11:03:11;10.20;;;1.33;;
69280;SDS011;56392;51.082;17.080;2024-01-25T11:08:35;11.77;;;1.60;;
69280;SDS011;56392;51.082;17.080;2024-01-25T11:14:00;10.88;;;1.60;;
69280;SDS011;56392;51.082;17.080;2024-01-25T11:19:32;12.00;;;1.40;;
69280;SDS011;56392;51.082;17.080;2024-01-25T11:24:57;11.60;;;1.13;;
69280;SDS011;56392;51.082;17.080;2024-01-25T11:30:23;12.90;;;1.30;;
69280;SDS011;56392;51.082;17.080;2024-01-25T11:35:55;11.47;;;1.47;;
69280;SDS011;56392;51.082;17.080;2024-01-25T11:41:20;9.40;;;1.35;;
69280;SDS011;56392;51.082;17.080;2024-01-25T11:46:43;12.15;;;1.83;;
69280;SDS011;56392;51.082;17.080;2024-01-25T11:52:07;14.43;;;1.60;;
69280;SDS011;56392;51.082;17.080;2024-01-25T11:57:31;7.93;;;1.10;;
69280;SDS011;56392;51.082;17.080;2024-01-25T12:02:57;12.32;;;1.38;;
69280;SDS011;56392;51.082;17.080;2024-01-25T12:08:24;11.15;;;1.67;;
69280;SDS011;56392;51.082;17.080;2024-01-25T12:13:58;10.80;;;1.60;;
69280;SDS011;56392;51.082;17.080;2024-01-25T12:19:21;11.50;;;1.38;;
69280;SDS011;56392;51.082;17.080;2024-01-25T12:24:46;10.23;;;1.60;;
69280;SDS011;56392;51.082;17.080;2024-01-25T12:30:11;10.57;;;1.23;;
69280;SDS011;56392;51.082;17.080;2024-01-25T12:35:34;10.82;;;1.35;;
69280;SDS011;56392;51.082;17.080;2024-01-25T12:41:01;14.05;;;1.67;;
69280;SDS011;56392;51.082;17.080;2024-01-25T12:46:27;9.57;;;1.43;;
69280;SDS011;56392;51.082;17.080;2024-01-25T12:51:51;10.27;;;1.30;;
69280;SDS011;56392;51.082;17.080;2024-01-25T12:57:16;11.48;;;1.45;;
69280;SDS011;56392;51.082;17.080;2024-01-25T13:02:40;8.80;;;1.15;;
69280;SDS011;56392;51.082;17.080;2024-01-25T13:08:04;9.90;;;1.07;;
69280;SDS011;56392;51.082;17.080;2024-01-25T13:13:30;12.93;;;1.42;;
69280;SDS011;56392;51.082;17.080;2024-01-25T13:18:53;8.57;;;1.40;;
69280;SDS011;56392;51.082;17.080;2024-01-25T13:24:18;9.93;;;1.27;;
69280;SDS011;56392;51.082;17.080;2024-01-25T13:29:42;9.88;;;1.20;;
69280;SDS011;56392;51.082;17.080;2024-01-25T13:35:09;9.55;;;1.30;;
69280;SDS011;56392;51.082;17.080;2024-01-25T13:40:34;10.13;;;1.53;;
69280;SDS011;56392;51.082;17.080;2024-01-25T13:45:58;15.40;;;1.70;;
69280;SDS011;56392;51.082;17.080;2024-01-25T13:51:21;13.05;;;1.45;;
69280;SDS011;56392;51.082;17.080;2024-01-25T13:56:45;14.45;;;1.75;;
69280;SDS011;56392;51.082;17.080;2024-01-25T14:02:10;10.70;;;1.50;;
69280;SDS011;56392;51.082;17.080;2024-01-25T14:07:34;10.90;;;1.38;;
69280;SDS011;56392;51.082;17.080;2024-01-25T14:12:59;10.38;;;1.67;;
69280;SDS011;56392;51.082;17.080;2024-01-25T14:18:35;11.43;;;1.43;;
69280;SDS011;56392;51.082;17.080;2024-01-25T14:23:59;13.55;;;1.20;;
69280;SDS011;56392;51.082;17.080;2024-01-25T14:29:22;12.75;;;1.80;;
69280;SDS011;56392;51.082;17.080;2024-01-25T14:34:47;14.87;;;1.70;;
69280;SDS011;56392;51.082;17.080;2024-01-25T14:40:16;11.60;;;2.10;;
69280;SDS011;56392;51.082;17.080;2024-01-25T14:45:42;8.60;;;1.15;;
69280;SDS011;56392;51.082;17.080;2024-01-25T14:51:07;11.80;;;1.85;;
69280;SDS011;56392;51.082;17.080;2024-01-25T14:56:30;9.13;;;1.50;;
69280;SDS011;56392;51.082;17.080;2024-01-25T15:01:55;10.88;;;1.55;;
69280;SDS011;56392;51.082;17.080;2024-01-25T15:07:20;8.30;;;1.30;;
69280;SDS011;56392;51.082;17.080;2024-01-25T15:12:45;11.60;;;1.33;;
69280;SDS011;56392;51.082;17.080;2024-01-25T15:18:10;10.35;;;1.33;;
69280;SDS011;56392;51.082;17.080;2024-01-25T15:23:49;13.32;;;1.50;;
69280;SDS011;56392;51.082;17.080;2024-01-25T15:29:15;9.77;;;1.37;;
69280;SDS011;56392;51.082;17.080;2024-01-25T15:34:38;12.23;;;1.70;;
69280;SDS011;56392;51.082;17.080;2024-01-25T15:40:03;12.68;;;1.63;;
69280;SDS011;56392;51.082;17.080;2024-01-25T15:45:32;11.10;;;1.50;;
69280;SDS011;56392;51.082;17.080;2024-01-25T15:50:56;14.70;;;1.50;;
69280;SDS011;56392;51.082;17.080;2024-01-25T15:56:20;13.73;;;1.50;;
69280;SDS011;56392;51.082;17.080;2024-01-25T16:01:45;13.95;;;1.55;;
69280;SDS011;56392;51.082;17.080;2024-01-25T16:07:08;13.40;;;1.97;;
69280;SDS011;56392;51.082;17.080;2024-01-25T16:12:33;9.45;;;1.63;;
69280;SDS011;56392;51.082;17.080;2024-01-25T16:17:57;12.77;;;1.55;;
69280;SDS011;56392;51.082;17.080;2024-01-25T16:23:21;7.93;;;1.43;;
69280;SDS011;56392;51.082;17.080;2024-01-25T16:28:46;11.40;;;1.53;;
69280;SDS011;56392;51.082;17.080;2024-01-25T16:34:09;10.88;;;1.58;;
69280;SDS011;56392;51.082;17.080;2024-01-25T16:39:34;14.20;;;1.85;;
69280;SDS011;56392;51.082;17.080;2024-01-25T16:44:59;10.73;;;1.40;;
69280;SDS011;56392;51.082;17.080;2024-01-25T16:50:22;17.52;;;2.13;;
69280;SDS011;56392;51.082;17.080;2024-01-25T16:55:50;15.32;;;2.08;;
69280;SDS011;56392;51.082;17.080;2024-01-25T17:01:16;18.40;;;1.90;;
69280;SDS011;56392;51.082;17.080;2024-01-25T17:06:40;14.98;;;2.25;;
69280;SDS011;56392;51.082;17.080;2024-01-25T17:12:03;11.35;;;1.77;;
69280;SDS011;56392;51.082;17.080;2024-01-25T17:17:28;10.37;;;1.80;;
69280;SDS011;56392;51.082;17.080;2024-01-25T17:22:52;13.03;;;1.90;;
69280;SDS011;56392;51.082;17.080;2024-01-25T17:28:17;13.80;;;2.00;;
69280;SDS011;56392;51.082;17.080;2024-01-25T17:33:43;9.02;;;1.77;;
69280;SDS011;56392;51.082;17.080;2024-01-25T17:39:09;11.80;;;2.43;;
69280;SDS011;56392;51.082;17.080;2024-01-25T17:44:32;14.65;;;1.88;;
69280;SDS011;56392;51.082;17.080;2024-01-25T17:49:59;12.95;;;2.08;;
69280;SDS011;56392;51.082;17.080;2024-01-25T17:55:22;12.93;;;1.83;;
69280;SDS011;56392;51.082;17.080;2024-01-25T18:00:45;17.13;;;2.17;;
69280;SDS011;56392;51.082;17.080;2024-01-25T18:06:10;13.60;;;2.17;;
69280;SDS011;56392;51.082;17.080;2024-01-25T18:11:33;13.67;;;1.83;;
69280;SDS011;56392;51.082;17.080;2024-01-25T18:16:56;9.93;;;1.90;;
69280;SDS011;56392;51.082;17.080;2024-01-25T18:22:29;16.15;;;2.30;;
69280;SDS011;56392;51.082;17.080;2024-01-25T18:28:14;12.27;;;2.70;;
69280;SDS011;56392;51.082;17.080;2024-01-25T18:33:39;13.73;;;2.40;;
69280;SDS011;56392;51.082;17.080;2024-01-25T18:39:07;13.45;;;2.35;;
69280;SDS011;56392;51.082;17.080;2024-01-25T18:44:31;14.80;;;2.75;;
69280;SDS011;56392;51.082;17.080;2024-01-25T18:49:54;13.23;;;2.30;;
69280;SDS011;56392;51.082;17.080;2024-01-25T18:55:20;12.43;;;2.45;;
69280;SDS011;56392;51.082;17.080;2024-01-25T19:00:47;14.52;;;2.80;;
69280;SDS011;56392;51.082;17.080;2024-01-25T19:06:11;13.40;;;1.80;;
69280;SDS011;56392;51.082;17.080;2024-01-25T19:11:36;13.13;;;2.20;;
69280;SDS011;56392;51.082;17.080;2024-01-25T19:17:00;15.10;;;2.22;;
69280;SDS011;56392;51.082;17.080;2024-01-25T19:22:26;16.50;;;2.30;;
69280;SDS011;56392;51.082;17.080;2024-01-25T19:27:52;11.40;;;2.23;;
69280;SDS011;56392;51.082;17.080;2024-01-25T19:33:15;11.32;;;1.80;;
69280;SDS011;56392;51.082;17.080;2024-01-25T19:38:39;12.98;;;2.20;;
69280;SDS011;56392;51.082;17.080;2024-01-25T19:44:05;16.63;;;1.87;;
69280;SDS011;56392;51.082;17.080;2024-01-25T19:49:28;14.57;;;1.65;;
69280;SDS011;56392;51.082;17.080;2024-01-25T19:54:53;11.48;;;2.30;;
69280;SDS011;56392;51.082;17.080;2024-01-25T20:00:19;10.00;;;1.90;;
69280;SDS011;56392;51.082;17.080;2024-01-25T20:05:46;13.10;;;2.00;;
69280;SDS011;56392;51.082;17.080;2024-01-25T20:11:10;12.73;;;1.95;;
69280;SDS011;56392;51.082;17.080;2024-01-25T20:16:34;15.50;;;2.05;;
69280;SDS011;56392;51.082;17.080;2024-01-25T20:21:58;14.90;;;2.20;;
69280;SDS011;56392;51.082;17.080;2024-01-25T20:27:23;13.77;;;2.33;;
69280;SDS011;56392;51.082;17.080;2024-01-25T20:32:48;11.75;;;2.30;;
69280;SDS011;56392;51.082;17.080;2024-01-25T20:38:11;12.47;;;2.70;;
69280;SDS011;56392;51.082;17.080;2024-01-25T20:43:35;11.15;;;2.05;;
69280;SDS011;56392;51.082;17.080;2024-01-25T20:49:01;12.15;;;2.35;;
69280;SDS011;56392;51.082;17.080;2024-01-25T20:54:25;12.90;;;1.70;;
69280;SDS011;56392;51.082;17.080;2024-01-25T20:59:48;16.20;;;2.63;;
69280;SDS011;56392;51.082;17.080;2024-01-25T21:05:15;12.13;;;2.00;;
69280;SDS011;56392;51.082;17.080;2024-01-25T21:10:39;14.85;;;2.47;;
69280;SDS011;56392;51.082;17.080;2024-01-25T21:16:04;10.93;;;2.00;;
69280;SDS011;56392;51.082;17.080;2024-01-25T21:21:29;16.13;;;2.28;;
69280;SDS011;56392;51.082;17.080;2024-01-25T21:26:54;15.05;;;2.40;;
69280;SDS011;56392;51.082;17.080;2024-01-25T21:32:17;14.90;;;2.93;;
69280;SDS011;56392;51.082;17.080;2024-01-25T21:37:42;17.05;;;2.28;;
69280;SDS011;56392;51.082;17.080;2024-01-25T21:43:08;18.25;;;2.97;;
69280;SDS011;56392;51.082;17.080;2024-01-25T21:48:31;18.63;;;2.97;;
69280;SDS011;56392;51.082;17.080;2024-01-25T21:53:56;14.53;;;3.00;;
69280;SDS011;56392;51.082;17.080;2024-01-25T21:59:19;14.90;;;2.75;;
69280;SDS011;56392;51.082;17.080;2024-01-25T22:04:42;17.02;;;2.78;;
69280;SDS011;56392;51.082;17.080;2024-01-25T22:10:07;14.00;;;2.97;;
69280;SDS011;56392;51.082;17.080;2024-01-25T22:15:30;19.25;;;3.05;;
69280;SDS011;56392;51.082;17.080;2024-01-25T22:20:53;17.38;;;2.53;;
69280;SDS011;56392;51.082;17.080;2024-01-25T22:26:18;15.07;;;2.77;;
69280;SDS011;56392;51.082;17.080;2024-01-25T22:31:41;18.42;;;2.67;;
69280;SDS011;56392;51.082;17.080;2024-01-25T22:37:04;12.50;;;2.38;;
69280;SDS011;56392;51.082;17.080;2024-01-25T22:42:29;14.80;;;2.33;;
69280;SDS011;56392;51.082;17.080;2024-01-25T22:47:54;12.20;;;2.07;;
69280;SDS011;56392;51.082;17.080;2024-01-25T22:53:17;15.88;;;2.28;;
69280;SDS011;56392;51.082;17.080;2024-01-25T22:58:42;14.70;;;2.47;;
69280;SDS011;56392;51.082;17.080;2024-01-25T23:04:05;10.63;;;1.83;;
69280;SDS011;56392;51.082;17.080;2024-01-25T23:09:28;14.70;;;2.30;;
69280;SDS011;56392;51.082;17.080;2024-01-25T23:14:53;12.40;;;1.67;;
69280;SDS011;56392;51.082;17.080;2024-01-25T23:20:16;15.87;;;2.10;;
69280;SDS011;56392;51.082;17.080;2024-01-25T23:25:39;14.13;;;2.42;;
69280;SDS011;56392;51.082;17.080;2024-01-25T23:31:06;17.02;;;2.33;;
69280;SDS011;56392;51.082;17.080;2024-01-25T23:36:29;15.63;;;2.57;;
69280;SDS011;56392;51.082;17.080;2024-01-25T23:41:55;14.23;;;1.67;;
69280;SDS011;56392;51.082;17.080;2024-01-25T23:47:19;16.35;;;2.05;;
69280;SDS011;56392;51.082;17.080;2024-01-25T23:52:42;12.65;;;1.77;;
69280;SDS011;56392;51.082;17.080;2024-01-25T23:58:05;14.77;;;1.63;;
